sensor_id;sensor_type;location;lat;lon;timestamp;P1;durP1;ratioP1;P2;durP2;ratioP2
47153;SDS011;32907;41.412;2.164;2023-08-17T00:02:15;5.90;;;3.85;;
47153;SDS011;32907;41.412;2.164;2023-08-17T00:04:43;9.07;;;4.38;;
47153;SDS011;32907;41.412;2.164;2023-08-17T00:07:10;8.05;;;4.28;;
47153;SDS011;32907;41.412;2.164;2023-08-17T00:09:38;7.00;;;4.07;;
47153;SDS011;32907;41.412;2.164;2023-08-17T00:12:07;6.82;;;3.80;;
47153;SDS011;32907;41.412;2.164;2023-08-17T00:14:35;7.50;;;3.97;;
47153;SDS011;32907;41.412;2.164;2023-08-17T00:17:02;6.20;;;3.80;;
47153;SDS011;32907;41.412;2.164;2023-08-17T00:19:30;6.13;;;3.40;;
47153;SDS011;32907;41.412;2.164;2023-08-17T00:21:58;7.28;;;3.92;;
47153;SDS011;32907;41.412;2.164;2023-08-17T00:24:26;4.95;;;3.10;;
47153;SDS011;32907;41.412;2.164;2023-08-17T00:26:54;8.82;;;3.80;;
47153;SDS011;32907;41.412;2.164;2023-08-17T00:29:23;5.40;;;3.50;;
47153;SDS011;32907;41.412;2.164;2023-08-17T00:31:51;7.45;;;3.40;;
47153;SDS011;32907;41.412;2.164;2023-08-17T00:34:19;6.72;;;3.65;;
47153;SDS011;32907;41.412;2.164;2023-08-17T00:36:47;6.95;;;3.63;;
47153;SDS011;32907;41.412;2.164;2023-08-17T00:39:15;6.43;;;3.30;;
47153;SDS011;32907;41.412;2.164;2023-08-17T00:41:43;5.40;;;3.40;;
47153;SDS011;32907;41.412;2.164;2023-08-17T00:44:11;5.22;;;3.30;;
47153;SDS011;32907;41.412;2.164;2023-08-17T00:46:40;8.50;;;3.78;;
47153;SDS011;32907;41.412;2.164;2023-08-17T00:49:08;5.93;;;3.63;;
47153;SDS011;32907;41.412;2.164;2023-08-17T00:51:38;6.40;;;3.63;;
47153;SDS011;32907;41.412;2.164;2023-08-17T00:54:06;7.22;;;3.65;;
47153;SDS011;32907;41.412;2.164;2023-08-17T00:56:35;5.35;;;3.50;;
47153;SDS011;32907;41.412;2.164;2023-08-17T00:59:03;7.03;;;3.72;;
47153;SDS011;32907;41.412;2.164;2023-08-17T01:01:31;4.80;;;3.45;;
47153;SDS011;32907;41.412;2.164;2023-08-17T01:03:59;6.97;;;3.78;;
47153;SDS011;32907;41.412;2.164;2023-08-17T01:06:27;7.78;;;3.70;;
47153;SDS011;32907;41.412;2.164;2023-08-17T01:08:55;7.05;;;3.70;;
47153;SDS011;32907;41.412;2.164;2023-08-17T01:16:47;5.93;;;3.15;;
47153;SDS011;32907;41.412;2.164;2023-08-17T01:19:26;6.55;;;3.65;;
47153;SDS011;32907;41.412;2.164;2023-08-17T01:21:57;5.60;;;3.42;;
47153;SDS011;32907;41.412;2.164;2023-08-17T01:24:30;7.60;;;3.73;;
47153;SDS011;32907;41.412;2.164;2023-08-17T01:26:58;5.60;;;3.42;;
47153;SDS011;32907;41.412;2.164;2023-08-17T01:29:26;8.10;;;3.28;;
47153;SDS011;32907;41.412;2.164;2023-08-17T01:34:33;6.60;;;3.88;;
47153;SDS011;32907;41.412;2.164;2023-08-17T01:37:07;9.32;;;3.65;;
47153;SDS011;32907;41.412;2.164;2023-08-17T01:39:38;7.00;;;3.88;;
47153;SDS011;32907;41.412;2.164;2023-08-17T01:42:10;5.53;;;3.65;;
47153;SDS011;32907;41.412;2.164;2023-08-17T01:44:40;7.85;;;4.15;;
47153;SDS011;32907;41.412;2.164;2023-08-17T01:47:08;6.97;;;3.60;;
47153;SDS011;32907;41.412;2.164;2023-08-17T01:49:37;7.05;;;3.80;;
47153;SDS011;32907;41.412;2.164;2023-08-17T01:52:05;5.35;;;3.78;;
47153;SDS011;32907;41.412;2.164;2023-08-17T01:54:33;6.15;;;3.30;;
47153;SDS011;32907;41.412;2.164;2023-08-17T01:57:01;5.45;;;3.40;;
47153;SDS011;32907;41.412;2.164;2023-08-17T01:59:29;6.38;;;3.40;;
47153;SDS011;32907;41.412;2.164;2023-08-17T02:01:57;5.88;;;3.13;;
47153;SDS011;32907;41.412;2.164;2023-08-17T02:04:26;5.35;;;3.10;;
47153;SDS011;32907;41.412;2.164;2023-08-17T02:06:54;9.02;;;3.80;;
47153;SDS011;32907;41.412;2.164;2023-08-17T02:09:21;10.10;;;3.92;;
47153;SDS011;32907;41.412;2.164;2023-08-17T02:11:52;6.20;;;3.33;;
47153;SDS011;32907;41.412;2.164;2023-08-17T02:14:20;6.30;;;3.42;;
47153;SDS011;32907;41.412;2.164;2023-08-17T02:16:48;6.10;;;3.20;;
47153;SDS011;32907;41.412;2.164;2023-08-17T02:19:16;8.05;;;4.30;;
47153;SDS011;32907;41.412;2.164;2023-08-17T02:21:44;5.65;;;3.40;;
47153;SDS011;32907;41.412;2.164;2023-08-17T02:24:12;4.97;;;3.47;;
47153;SDS011;32907;41.412;2.164;2023-08-17T02:26:40;6.55;;;3.42;;
47153;SDS011;32907;41.412;2.164;2023-08-17T02:29:08;8.35;;;3.47;;
47153;SDS011;32907;41.412;2.164;2023-08-17T02:31:36;7.13;;;3.65;;
47153;SDS011;32907;41.412;2.164;2023-08-17T02:34:04;6.82;;;3.40;;
47153;SDS011;32907;41.412;2.164;2023-08-17T02:36:33;7.88;;;3.55;;
47153;SDS011;32907;41.412;2.164;2023-08-17T02:39:03;6.53;;;3.55;;
47153;SDS011;32907;41.412;2.164;2023-08-17T02:41:31;4.43;;;3.10;;
47153;SDS011;32907;41.412;2.164;2023-08-17T02:44:00;5.75;;;3.50;;
47153;SDS011;32907;41.412;2.164;2023-08-17T02:46:28;6.30;;;3.33;;
47153;SDS011;32907;41.412;2.164;2023-08-17T02:48:59;8.30;;;3.55;;
47153;SDS011;32907;41.412;2.164;2023-08-17T02:51:27;5.40;;;3.10;;
47153;SDS011;32907;41.412;2.164;2023-08-17T02:53:55;5.30;;;3.35;;
47153;SDS011;32907;41.412;2.164;2023-08-17T02:56:23;6.32;;;3.75;;
47153;SDS011;32907;41.412;2.164;2023-08-17T02:58:50;6.65;;;3.20;;
47153;SDS011;32907;41.412;2.164;2023-08-17T03:01:18;8.10;;;4.15;;
47153;SDS011;32907;41.412;2.164;2023-08-17T03:03:48;5.68;;;3.50;;
47153;SDS011;32907;41.412;2.164;2023-08-17T03:06:16;7.57;;;3.28;;
47153;SDS011;32907;41.412;2.164;2023-08-17T03:08:44;7.60;;;3.25;;
47153;SDS011;32907;41.412;2.164;2023-08-17T03:11:12;7.80;;;3.75;;
47153;SDS011;32907;41.412;2.164;2023-08-17T03:13:40;8.27;;;4.10;;
47153;SDS011;32907;41.412;2.164;2023-08-17T03:16:07;7.20;;;3.85;;
47153;SDS011;32907;41.412;2.164;2023-08-17T03:18:36;5.50;;;3.53;;
47153;SDS011;32907;41.412;2.164;2023-08-17T03:21:04;6.38;;;3.55;;
47153;SDS011;32907;41.412;2.164;2023-08-17T03:23:33;6.88;;;3.45;;
47153;SDS011;32907;41.412;2.164;2023-08-17T03:26:01;6.10;;;3.42;;
47153;SDS011;32907;41.412;2.164;2023-08-17T03:28:31;7.22;;;3.45;;
47153;SDS011;32907;41.412;2.164;2023-08-17T03:30:59;5.32;;;3.30;;
47153;SDS011;32907;41.412;2.164;2023-08-17T03:33:26;6.43;;;3.80;;
47153;SDS011;32907;41.412;2.164;2023-08-17T03:35:54;5.00;;;3.42;;
47153;SDS011;32907;41.412;2.164;2023-08-17T03:38:23;8.27;;;3.67;;
47153;SDS011;32907;41.412;2.164;2023-08-17T03:40:51;6.45;;;3.72;;
47153;SDS011;32907;41.412;2.164;2023-08-17T03:43:22;6.13;;;3.35;;
47153;SDS011;32907;41.412;2.164;2023-08-17T03:45:50;5.18;;;3.40;;
47153;SDS011;32907;41.412;2.164;2023-08-17T03:48:18;4.45;;;3.20;;
47153;SDS011;32907;41.412;2.164;2023-08-17T03:50:46;5.32;;;3.05;;
47153;SDS011;32907;41.412;2.164;2023-08-17T03:53:14;7.63;;;3.65;;
47153;SDS011;32907;41.412;2.164;2023-08-17T03:55:48;7.32;;;3.17;;
47153;SDS011;32907;41.412;2.164;2023-08-17T03:58:17;5.47;;;3.20;;
47153;SDS011;32907;41.412;2.164;2023-08-17T04:00:49;4.55;;;3.10;;
47153;SDS011;32907;41.412;2.164;2023-08-17T04:03:23;5.30;;;3.15;;
47153;SDS011;32907;41.412;2.164;2023-08-17T04:05:51;6.70;;;3.50;;
47153;SDS011;32907;41.412;2.164;2023-08-17T04:08:20;4.75;;;3.10;;
47153;SDS011;32907;41.412;2.164;2023-08-17T04:10:48;5.40;;;3.25;;
47153;SDS011;32907;41.412;2.164;2023-08-17T04:13:16;6.60;;;3.17;;
47153;SDS011;32907;41.412;2.164;2023-08-17T04:15:44;6.25;;;3.47;;
47153;SDS011;32907;41.412;2.164;2023-08-17T04:18:12;5.40;;;3.35;;
47153;SDS011;32907;41.412;2.164;2023-08-17T04:20:40;5.85;;;3.00;;
47153;SDS011;32907;41.412;2.164;2023-08-17T04:23:08;5.65;;;3.38;;
47153;SDS011;32907;41.412;2.164;2023-08-17T04:25:36;5.30;;;3.25;;
47153;SDS011;32907;41.412;2.164;2023-08-17T04:28:04;5.03;;;3.20;;
47153;SDS011;32907;41.412;2.164;2023-08-17T04:30:34;6.15;;;3.78;;
47153;SDS011;32907;41.412;2.164;2023-08-17T04:33:02;5.93;;;3.03;;
47153;SDS011;32907;41.412;2.164;2023-08-17T04:35:31;7.03;;;3.22;;
47153;SDS011;32907;41.412;2.164;2023-08-17T04:37:59;7.18;;;3.30;;
47153;SDS011;32907;41.412;2.164;2023-08-17T04:40:27;9.10;;;3.55;;
47153;SDS011;32907;41.412;2.164;2023-08-17T04:42:57;8.35;;;3.33;;
47153;SDS011;32907;41.412;2.164;2023-08-17T04:45:26;5.85;;;3.58;;
47153;SDS011;32907;41.412;2.164;2023-08-17T04:47:54;6.28;;;3.33;;
47153;SDS011;32907;41.412;2.164;2023-08-17T04:50:23;5.53;;;3.20;;
47153;SDS011;32907;41.412;2.164;2023-08-17T04:52:53;7.18;;;3.42;;
47153;SDS011;32907;41.412;2.164;2023-08-17T04:55:21;5.15;;;3.20;;
47153;SDS011;32907;41.412;2.164;2023-08-17T04:57:48;5.60;;;3.00;;
47153;SDS011;32907;41.412;2.164;2023-08-17T05:00:17;3.83;;;3.00;;
47153;SDS011;32907;41.412;2.164;2023-08-17T05:02:47;7.47;;;3.55;;
47153;SDS011;32907;41.412;2.164;2023-08-17T05:05:15;8.18;;;3.63;;
47153;SDS011;32907;41.412;2.164;2023-08-17T05:07:44;6.03;;;3.15;;
47153;SDS011;32907;41.412;2.164;2023-08-17T05:10:12;3.78;;;2.92;;
47153;SDS011;32907;41.412;2.164;2023-08-17T05:12:44;6.85;;;3.15;;
47153;SDS011;32907;41.412;2.164;2023-08-17T05:15:12;7.07;;;3.60;;
47153;SDS011;32907;41.412;2.164;2023-08-17T05:17:40;4.50;;;3.38;;
47153;SDS011;32907;41.412;2.164;2023-08-17T05:20:12;5.13;;;3.50;;
47153;SDS011;32907;41.412;2.164;2023-08-17T05:22:40;5.32;;;3.10;;
47153;SDS011;32907;41.412;2.164;2023-08-17T05:25:08;4.38;;;3.00;;
47153;SDS011;32907;41.412;2.164;2023-08-17T05:27:38;5.40;;;2.95;;
47153;SDS011;32907;41.412;2.164;2023-08-17T05:30:06;5.47;;;2.80;;
47153;SDS011;32907;41.412;2.164;2023-08-17T05:32:34;5.78;;;3.15;;
47153;SDS011;32907;41.412;2.164;2023-08-17T05:35:02;4.80;;;2.90;;
47153;SDS011;32907;41.412;2.164;2023-08-17T05:37:31;5.13;;;3.00;;
47153;SDS011;32907;41.412;2.164;2023-08-17T05:39:58;6.68;;;3.65;;
47153;SDS011;32907;41.412;2.164;2023-08-17T05:42:27;5.70;;;3.33;;
47153;SDS011;32907;41.412;2.164;2023-08-17T05:44:55;5.85;;;2.95;;
47153;SDS011;32907;41.412;2.164;2023-08-17T05:47:23;4.55;;;2.97;;
47153;SDS011;32907;41.412;2.164;2023-08-17T05:49:51;5.40;;;3.22;;
47153;SDS011;32907;41.412;2.164;2023-08-17T05:52:19;7.13;;;3.40;;
47153;SDS011;32907;41.412;2.164;2023-08-17T05:54:47;5.05;;;3.05;;
47153;SDS011;32907;41.412;2.164;2023-08-17T05:57:15;4.18;;;2.83;;
47153;SDS011;32907;41.412;2.164;2023-08-17T05:59:42;6.15;;;2.92;;
47153;SDS011;32907;41.412;2.164;2023-08-17T06:02:10;3.60;;;2.60;;
47153;SDS011;32907;41.412;2.164;2023-08-17T06:04:38;6.68;;;3.22;;
47153;SDS011;32907;41.412;2.164;2023-08-17T06:07:06;6.40;;;3.15;;
47153;SDS011;32907;41.412;2.164;2023-08-17T06:09:34;7.47;;;3.35;;
47153;SDS011;32907;41.412;2.164;2023-08-17T06:12:02;6.85;;;3.60;;
47153;SDS011;32907;41.412;2.164;2023-08-17T06:14:30;8.55;;;3.45;;
47153;SDS011;32907;41.412;2.164;2023-08-17T06:16:58;7.78;;;3.20;;
47153;SDS011;32907;41.412;2.164;2023-08-17T06:19:26;8.52;;;3.42;;
47153;SDS011;32907;41.412;2.164;2023-08-17T06:21:54;6.20;;;3.38;;
47153;SDS011;32907;41.412;2.164;2023-08-17T06:24:22;5.28;;;3.00;;
47153;SDS011;32907;41.412;2.164;2023-08-17T06:26:49;4.55;;;3.03;;
47153;SDS011;32907;41.412;2.164;2023-08-17T06:29:17;5.35;;;2.90;;
47153;SDS011;32907;41.412;2.164;2023-08-17T06:31:45;5.55;;;3.20;;
47153;SDS011;32907;41.412;2.164;2023-08-17T06:34:14;6.20;;;3.13;;
47153;SDS011;32907;41.412;2.164;2023-08-17T06:36:42;3.90;;;2.95;;
47153;SDS011;32907;41.412;2.164;2023-08-17T06:39:24;7.18;;;3.33;;
47153;SDS011;32907;41.412;2.164;2023-08-17T06:41:53;5.90;;;2.17;;
47153;SDS011;32907;41.412;2.164;2023-08-17T06:44:21;4.15;;;2.28;;
47153;SDS011;32907;41.412;2.164;2023-08-17T06:46:49;6.40;;;2.72;;
47153;SDS011;32907;41.412;2.164;2023-08-17T06:49:18;5.60;;;2.83;;
47153;SDS011;32907;41.412;2.164;2023-08-17T06:51:46;5.05;;;3.40;;
47153;SDS011;32907;41.412;2.164;2023-08-17T06:54:14;12.13;;;3.92;;
47153;SDS011;32907;41.412;2.164;2023-08-17T06:56:42;7.10;;;3.55;;
47153;SDS011;32907;41.412;2.164;2023-08-17T06:59:10;8.75;;;3.85;;
47153;SDS011;32907;41.412;2.164;2023-08-17T07:01:38;10.75;;;4.60;;
47153;SDS011;32907;41.412;2.164;2023-08-17T07:04:06;9.32;;;4.45;;
47153;SDS011;32907;41.412;2.164;2023-08-17T07:06:34;7.65;;;3.83;;
47153;SDS011;32907;41.412;2.164;2023-08-17T07:09:02;9.70;;;4.13;;
47153;SDS011;32907;41.412;2.164;2023-08-17T07:11:32;6.07;;;3.83;;
47153;SDS011;32907;41.412;2.164;2023-08-17T07:14:00;9.07;;;3.90;;
47153;SDS011;32907;41.412;2.164;2023-08-17T07:16:28;8.75;;;3.95;;
47153;SDS011;32907;41.412;2.164;2023-08-17T07:18:56;10.60;;;4.78;;
47153;SDS011;32907;41.412;2.164;2023-08-17T07:21:24;10.43;;;4.05;;
47153;SDS011;32907;41.412;2.164;2023-08-17T07:23:54;11.05;;;4.22;;
47153;SDS011;32907;41.412;2.164;2023-08-17T07:26:23;8.82;;;3.63;;
47153;SDS011;32907;41.412;2.164;2023-08-17T07:28:50;9.48;;;4.13;;
47153;SDS011;32907;41.412;2.164;2023-08-17T07:31:18;7.85;;;4.28;;
47153;SDS011;32907;41.412;2.164;2023-08-17T07:33:48;10.02;;;4.30;;
47153;SDS011;32907;41.412;2.164;2023-08-17T07:36:16;6.15;;;3.38;;
47153;SDS011;32907;41.412;2.164;2023-08-17T07:38:44;6.13;;;3.53;;
47153;SDS011;32907;41.412;2.164;2023-08-17T07:41:12;8.27;;;3.75;;
47153;SDS011;32907;41.412;2.164;2023-08-17T07:43:39;6.70;;;3.92;;
47153;SDS011;32907;41.412;2.164;2023-08-17T07:46:08;6.50;;;3.63;;
47153;SDS011;32907;41.412;2.164;2023-08-17T07:48:36;9.38;;;4.43;;
47153;SDS011;32907;41.412;2.164;2023-08-17T07:51:04;8.10;;;3.30;;
47153;SDS011;32907;41.412;2.164;2023-08-17T07:53:32;9.68;;;4.38;;
47153;SDS011;32907;41.412;2.164;2023-08-17T07:56:00;8.02;;;3.67;;
47153;SDS011;32907;41.412;2.164;2023-08-17T07:58:28;7.65;;;3.70;;
47153;SDS011;32907;41.412;2.164;2023-08-17T08:00:55;6.75;;;3.40;;
47153;SDS011;32907;41.412;2.164;2023-08-17T08:03:23;6.90;;;3.55;;
47153;SDS011;32907;41.412;2.164;2023-08-17T08:05:51;7.97;;;3.63;;
47153;SDS011;32907;41.412;2.164;2023-08-17T08:08:20;10.63;;;4.22;;
47153;SDS011;32907;41.412;2.164;2023-08-17T08:10:48;6.30;;;3.58;;
47153;SDS011;32907;41.412;2.164;2023-08-17T08:13:16;9.55;;;3.70;;
47153;SDS011;32907;41.412;2.164;2023-08-17T08:15:44;7.50;;;3.42;;
47153;SDS011;32907;41.412;2.164;2023-08-17T08:18:12;4.80;;;3.22;;
47153;SDS011;32907;41.412;2.164;2023-08-17T08:20:40;5.80;;;3.42;;
47153;SDS011;32907;41.412;2.164;2023-08-17T08:23:08;6.88;;;3.38;;
47153;SDS011;32907;41.412;2.164;2023-08-17T08:25:36;7.80;;;3.63;;
47153;SDS011;32907;41.412;2.164;2023-08-17T08:28:04;8.82;;;3.72;;
47153;SDS011;32907;41.412;2.164;2023-08-17T08:30:32;6.38;;;3.40;;
47153;SDS011;32907;41.412;2.164;2023-08-17T08:33:00;8.18;;;3.88;;
47153;SDS011;32907;41.412;2.164;2023-08-17T08:35:28;6.20;;;3.40;;
47153;SDS011;32907;41.412;2.164;2023-08-17T08:37:58;5.60;;;3.28;;
47153;SDS011;32907;41.412;2.164;2023-08-17T08:40:27;7.10;;;3.70;;
47153;SDS011;32907;41.412;2.164;2023-08-17T08:42:56;6.50;;;3.53;;
47153;SDS011;32907;41.412;2.164;2023-08-17T08:45:25;6.28;;;3.10;;
47153;SDS011;32907;41.412;2.164;2023-08-17T08:47:57;6.72;;;3.58;;
47153;SDS011;32907;41.412;2.164;2023-08-17T08:50:28;9.35;;;3.60;;
47153;SDS011;32907;41.412;2.164;2023-08-17T08:53:00;13.40;;;3.88;;
47153;SDS011;32907;41.412;2.164;2023-08-17T08:55:37;10.88;;;4.20;;
47153;SDS011;32907;41.412;2.164;2023-08-17T08:58:12;10.18;;;4.13;;
47153;SDS011;32907;41.412;2.164;2023-08-17T09:00:45;11.05;;;4.10;;
47153;SDS011;32907;41.412;2.164;2023-08-17T09:03:15;11.70;;;4.35;;
47153;SDS011;32907;41.412;2.164;2023-08-17T09:05:48;13.60;;;4.45;;
47153;SDS011;32907;41.412;2.164;2023-08-17T09:08:21;17.60;;;4.32;;
47153;SDS011;32907;41.412;2.164;2023-08-17T09:10:50;8.60;;;4.10;;
47153;SDS011;32907;41.412;2.164;2023-08-17T09:13:18;7.80;;;3.67;;
47153;SDS011;32907;41.412;2.164;2023-08-17T09:15:46;6.22;;;3.90;;
47153;SDS011;32907;41.412;2.164;2023-08-17T09:18:14;6.70;;;4.00;;
47153;SDS011;32907;41.412;2.164;2023-08-17T09:20:46;6.75;;;4.10;;
47153;SDS011;32907;41.412;2.164;2023-08-17T09:23:19;6.78;;;3.40;;
47153;SDS011;32907;41.412;2.164;2023-08-17T09:25:49;5.43;;;3.78;;
47153;SDS011;32907;41.412;2.164;2023-08-17T09:28:19;7.05;;;3.75;;
47153;SDS011;32907;41.412;2.164;2023-08-17T09:30:58;4.28;;;3.20;;
47153;SDS011;32907;41.412;2.164;2023-08-17T09:33:33;6.82;;;3.70;;
47153;SDS011;32907;41.412;2.164;2023-08-17T09:36:03;6.18;;;3.85;;
47153;SDS011;32907;41.412;2.164;2023-08-17T09:38:31;8.25;;;4.00;;
47153;SDS011;32907;41.412;2.164;2023-08-17T09:40:59;7.20;;;3.83;;
47153;SDS011;32907;41.412;2.164;2023-08-17T09:43:27;7.63;;;3.45;;
47153;SDS011;32907;41.412;2.164;2023-08-17T09:46:02;6.15;;;3.75;;
47153;SDS011;32907;41.412;2.164;2023-08-17T09:48:30;6.70;;;3.95;;
47153;SDS011;32907;41.412;2.164;2023-08-17T09:51:00;5.05;;;3.42;;
47153;SDS011;32907;41.412;2.164;2023-08-17T09:53:34;7.97;;;4.00;;
47153;SDS011;32907;41.412;2.164;2023-08-17T09:56:07;6.80;;;3.65;;
47153;SDS011;32907;41.412;2.164;2023-08-17T09:58:44;5.85;;;3.30;;
47153;SDS011;32907;41.412;2.164;2023-08-17T10:01:17;6.38;;;3.55;;
47153;SDS011;32907;41.412;2.164;2023-08-17T10:03:49;6.50;;;3.33;;
47153;SDS011;32907;41.412;2.164;2023-08-17T10:06:20;5.05;;;2.72;;
47153;SDS011;32907;41.412;2.164;2023-08-17T10:08:54;4.93;;;2.97;;
47153;SDS011;32907;41.412;2.164;2023-08-17T10:11:24;5.53;;;2.90;;
47153;SDS011;32907;41.412;2.164;2023-08-17T10:14:02;6.07;;;2.83;;
47153;SDS011;32907;41.412;2.164;2023-08-17T10:16:45;4.50;;;2.83;;
47153;SDS011;32907;41.412;2.164;2023-08-17T10:19:25;5.53;;;3.28;;
47153;SDS011;32907;41.412;2.164;2023-08-17T10:24:46;7.90;;;3.03;;
47153;SDS011;32907;41.412;2.164;2023-08-17T10:27:15;4.88;;;2.50;;
47153;SDS011;32907;41.412;2.164;2023-08-17T10:29:50;6.05;;;3.13;;
47153;SDS011;32907;41.412;2.164;2023-08-17T10:32:20;7.07;;;2.90;;
47153;SDS011;32907;41.412;2.164;2023-08-17T10:34:49;5.78;;;3.15;;
47153;SDS011;32907;41.412;2.164;2023-08-17T10:37:20;7.25;;;3.10;;
47153;SDS011;32907;41.412;2.164;2023-08-17T10:39:49;6.10;;;2.70;;
47153;SDS011;32907;41.412;2.164;2023-08-17T10:42:33;5.53;;;3.08;;
47153;SDS011;32907;41.412;2.164;2023-08-17T10:51:01;9.45;;;5.57;;
47153;SDS011;32907;41.412;2.164;2023-08-17T10:53:34;9.05;;;4.70;;
47153;SDS011;32907;41.412;2.164;2023-08-17T10:56:06;6.22;;;3.58;;
47153;SDS011;32907;41.412;2.164;2023-08-17T10:58:39;6.80;;;3.35;;
47153;SDS011;32907;41.412;2.164;2023-08-17T11:01:08;8.30;;;3.28;;
47153;SDS011;32907;41.412;2.164;2023-08-17T11:03:37;4.78;;;2.80;;
47153;SDS011;32907;41.412;2.164;2023-08-17T11:06:15;5.43;;;2.85;;
47153;SDS011;32907;41.412;2.164;2023-08-17T11:08:55;6.75;;;2.92;;
47153;SDS011;32907;41.412;2.164;2023-08-17T11:11:23;7.20;;;3.22;;
47153;SDS011;32907;41.412;2.164;2023-08-17T11:13:52;6.53;;;3.33;;
47153;SDS011;32907;41.412;2.164;2023-08-17T11:16:24;8.30;;;3.60;;
47153;SDS011;32907;41.412;2.164;2023-08-17T11:18:52;8.57;;;3.63;;
47153;SDS011;32907;41.412;2.164;2023-08-17T11:21:20;7.30;;;3.45;;
47153;SDS011;32907;41.412;2.164;2023-08-17T11:23:49;10.98;;;4.15;;
47153;SDS011;32907;41.412;2.164;2023-08-17T11:26:17;6.65;;;3.30;;
47153;SDS011;32907;41.412;2.164;2023-08-17T11:28:46;8.60;;;4.55;;
47153;SDS011;32907;41.412;2.164;2023-08-17T11:31:14;6.03;;;3.65;;
47153;SDS011;32907;41.412;2.164;2023-08-17T11:33:43;9.48;;;3.60;;
47153;SDS011;32907;41.412;2.164;2023-08-17T11:36:14;6.32;;;3.42;;
47153;SDS011;32907;41.412;2.164;2023-08-17T11:38:44;6.30;;;3.67;;
47153;SDS011;32907;41.412;2.164;2023-08-17T11:41:12;9.95;;;3.78;;
47153;SDS011;32907;41.412;2.164;2023-08-17T11:43:45;6.80;;;4.35;;
47153;SDS011;32907;41.412;2.164;2023-08-17T11:46:14;12.25;;;4.50;;
47153;SDS011;32907;41.412;2.164;2023-08-17T11:48:43;7.22;;;3.58;;
47153;SDS011;32907;41.412;2.164;2023-08-17T11:51:11;8.15;;;3.75;;
47153;SDS011;32907;41.412;2.164;2023-08-17T11:53:39;9.77;;;3.55;;
47153;SDS011;32907;41.412;2.164;2023-08-17T11:56:08;7.38;;;3.30;;
47153;SDS011;32907;41.412;2.164;2023-08-17T11:58:41;8.40;;;2.85;;
47153;SDS011;32907;41.412;2.164;2023-08-17T12:01:14;9.90;;;4.95;;
47153;SDS011;32907;41.412;2.164;2023-08-17T12:03:46;8.38;;;5.00;;
47153;SDS011;32907;41.412;2.164;2023-08-17T12:06:16;7.22;;;3.67;;
47153;SDS011;32907;41.412;2.164;2023-08-17T12:08:45;6.68;;;4.00;;
47153;SDS011;32907;41.412;2.164;2023-08-17T12:11:18;42.85;;;23.95;;
47153;SDS011;32907;41.412;2.164;2023-08-17T12:13:49;49.63;;;27.27;;
47153;SDS011;32907;41.412;2.164;2023-08-17T12:16:22;17.13;;;9.80;;
47153;SDS011;32907;41.412;2.164;2023-08-17T12:18:50;10.48;;;5.18;;
47153;SDS011;32907;41.412;2.164;2023-08-17T12:21:23;8.88;;;3.50;;
47153;SDS011;32907;41.412;2.164;2023-08-17T12:23:51;9.05;;;3.50;;
47153;SDS011;32907;41.412;2.164;2023-08-17T12:26:22;6.50;;;3.30;;
47153;SDS011;32907;41.412;2.164;2023-08-17T12:28:50;5.93;;;3.10;;
47153;SDS011;32907;41.412;2.164;2023-08-17T12:31:24;6.00;;;3.00;;
47153;SDS011;32907;41.412;2.164;2023-08-17T12:33:52;5.82;;;3.20;;
47153;SDS011;32907;41.412;2.164;2023-08-17T12:36:22;6.00;;;3.10;;
47153;SDS011;32907;41.412;2.164;2023-08-17T12:38:50;5.60;;;3.00;;
47153;SDS011;32907;41.412;2.164;2023-08-17T12:41:18;7.55;;;3.00;;
47153;SDS011;32907;41.412;2.164;2023-08-17T12:43:49;5.25;;;3.15;;
47153;SDS011;32907;41.412;2.164;2023-08-17T12:46:18;9.23;;;3.47;;
47153;SDS011;32907;41.412;2.164;2023-08-17T12:48:48;5.47;;;2.97;;
47153;SDS011;32907;41.412;2.164;2023-08-17T12:51:16;6.53;;;3.28;;
47153;SDS011;32907;41.412;2.164;2023-08-17T12:53:44;9.40;;;3.10;;
47153;SDS011;32907;41.412;2.164;2023-08-17T12:56:16;9.60;;;3.75;;
47153;SDS011;32907;41.412;2.164;2023-08-17T12:58:48;6.80;;;3.40;;
47153;SDS011;32907;41.412;2.164;2023-08-17T13:01:17;12.32;;;7.13;;
47153;SDS011;32907;41.412;2.164;2023-08-17T13:03:46;16.52;;;9.05;;
47153;SDS011;32907;41.412;2.164;2023-08-17T13:06:14;13.10;;;7.53;;
47153;SDS011;32907;41.412;2.164;2023-08-17T13:08:48;14.68;;;7.00;;
47153;SDS011;32907;41.412;2.164;2023-08-17T13:11:16;11.23;;;4.90;;
47153;SDS011;32907;41.412;2.164;2023-08-17T13:13:44;9.77;;;3.80;;
47153;SDS011;32907;41.412;2.164;2023-08-17T13:16:12;7.57;;;3.60;;
47153;SDS011;32907;41.412;2.164;2023-08-17T13:18:40;5.07;;;3.25;;
47153;SDS011;32907;41.412;2.164;2023-08-17T13:21:08;7.50;;;4.30;;
47153;SDS011;32907;41.412;2.164;2023-08-17T13:23:39;7.20;;;3.30;;
47153;SDS011;32907;41.412;2.164;2023-08-17T13:26:06;6.50;;;3.50;;
47153;SDS011;32907;41.412;2.164;2023-08-17T13:28:36;5.65;;;3.45;;
47153;SDS011;32907;41.412;2.164;2023-08-17T13:31:05;6.80;;;3.50;;
47153;SDS011;32907;41.412;2.164;2023-08-17T13:33:50;7.20;;;3.63;;
47153;SDS011;32907;41.412;2.164;2023-08-17T13:36:20;15.55;;;8.63;;
47153;SDS011;32907;41.412;2.164;2023-08-17T13:38:49;31.75;;;18.48;;
47153;SDS011;32907;41.412;2.164;2023-08-17T13:41:17;51.85;;;23.80;;
47153;SDS011;32907;41.412;2.164;2023-08-17T13:43:45;21.58;;;10.52;;
47153;SDS011;32907;41.412;2.164;2023-08-17T13:46:15;9.50;;;5.53;;
47153;SDS011;32907;41.412;2.164;2023-08-17T13:48:48;8.13;;;4.10;;
47153;SDS011;32907;41.412;2.164;2023-08-17T13:51:18;6.65;;;3.55;;
47153;SDS011;32907;41.412;2.164;2023-08-17T13:53:47;12.55;;;4.50;;
47153;SDS011;32907;41.412;2.164;2023-08-17T13:56:16;7.70;;;3.10;;
47153;SDS011;32907;41.412;2.164;2023-08-17T13:58:49;6.45;;;2.60;;
47153;SDS011;32907;41.412;2.164;2023-08-17T14:01:20;6.78;;;3.25;;
47153;SDS011;32907;41.412;2.164;2023-08-17T14:03:49;6.18;;;3.00;;
47153;SDS011;32907;41.412;2.164;2023-08-17T14:06:22;7.55;;;3.28;;
47153;SDS011;32907;41.412;2.164;2023-08-17T14:08:52;6.30;;;3.25;;
47153;SDS011;32907;41.412;2.164;2023-08-17T14:11:22;7.93;;;3.88;;
47153;SDS011;32907;41.412;2.164;2023-08-17T14:13:54;6.53;;;3.28;;
47153;SDS011;32907;41.412;2.164;2023-08-17T14:16:22;7.68;;;2.85;;
47153;SDS011;32907;41.412;2.164;2023-08-17T14:18:53;6.07;;;3.70;;
47153;SDS011;32907;41.412;2.164;2023-08-17T14:21:22;8.63;;;3.53;;
47153;SDS011;32907;41.412;2.164;2023-08-17T14:23:53;6.88;;;2.92;;
47153;SDS011;32907;41.412;2.164;2023-08-17T14:26:24;5.13;;;3.28;;
47153;SDS011;32907;41.412;2.164;2023-08-17T14:28:52;5.93;;;3.08;;
47153;SDS011;32907;41.412;2.164;2023-08-17T14:31:19;6.32;;;3.20;;
47153;SDS011;32907;41.412;2.164;2023-08-17T14:33:50;8.27;;;3.92;;
47153;SDS011;32907;41.412;2.164;2023-08-17T14:36:21;6.47;;;2.90;;
47153;SDS011;32907;41.412;2.164;2023-08-17T14:38:54;6.82;;;3.33;;
47153;SDS011;32907;41.412;2.164;2023-08-17T14:41:22;6.78;;;3.53;;
47153;SDS011;32907;41.412;2.164;2023-08-17T14:43:50;6.68;;;3.08;;
47153;SDS011;32907;41.412;2.164;2023-08-17T14:46:18;5.78;;;3.35;;
47153;SDS011;32907;41.412;2.164;2023-08-17T14:48:46;7.13;;;3.38;;
47153;SDS011;32907;41.412;2.164;2023-08-17T14:51:14;11.00;;;3.63;;
47153;SDS011;32907;41.412;2.164;2023-08-17T14:53:42;20.67;;;4.47;;
47153;SDS011;32907;41.412;2.164;2023-08-17T14:56:10;12.60;;;3.78;;
47153;SDS011;32907;41.412;2.164;2023-08-17T14:58:38;9.48;;;4.00;;
47153;SDS011;32907;41.412;2.164;2023-08-17T15:01:06;5.65;;;3.08;;
47153;SDS011;32907;41.412;2.164;2023-08-17T15:03:34;7.45;;;3.72;;
47153;SDS011;32907;41.412;2.164;2023-08-17T15:06:01;7.40;;;3.55;;
47153;SDS011;32907;41.412;2.164;2023-08-17T15:08:33;8.88;;;4.47;;
47153;SDS011;32907;41.412;2.164;2023-08-17T15:11:24;16.42;;;3.60;;
47153;SDS011;32907;41.412;2.164;2023-08-17T15:13:52;5.95;;;3.00;;
47153;SDS011;32907;41.412;2.164;2023-08-17T15:16:20;5.75;;;2.97;;